Willowdale, Nebraska
Current Conditions -  °F | °C
As of 3:35 PM on Sunday 23 Nov 2014 (Local Time) from KONL Reporting Station
Broken Clouds Broken Clouds  
Wind Chill: 35°   Ceiling: 4800
Heat Index: 45°   Visibility: 10mi
Dew Point: 28°   Wind: 26mph
Humidity: 53%   Direction: 330°NNW
Pressure: 29.59"   Gusts: 38mph
Location:  42.6164°N, 98.6183°W
Report Text: KONL 232135Z AUTO 33023G33KT 10SM BKN048 07/M02 A2959 RMK AO2 T00701021
Loading
Personal Weather Stations






























Interactive Weather Map New forecast layout! Learn more

10-Day Weather Forecast

Advertisements
Track Severe Weather on mobile